sensor_id;sensor_type;location;lat;lon;timestamp;pressure;altitude;pressure_sealevel;temperature;humidity
70833;BME280;58452;59.418;17.962;2022-11-18T00:01:04;101683.72;;;1.56;84.81
70833;BME280;58452;59.418;17.962;2022-11-18T00:03:30;101678.50;;;1.59;85.03
70833;BME280;58452;59.418;17.962;2022-11-18T00:05:56;101675.41;;;1.52;84.64
70833;BME280;58452;59.418;17.962;2022-11-18T00:08:23;101668.66;;;1.51;84.48
70833;BME280;58452;59.418;17.962;2022-11-18T00:10:48;101686.72;;;1.65;84.29
70833;BME280;58452;59.418;17.962;2022-11-18T00:13:14;101685.09;;;1.64;84.51
70833;BME280;58452;59.418;17.962;2022-11-18T00:16:03;101687.22;;;1.53;84.82
70833;BME280;58452;59.418;17.962;2022-11-18T00:18:29;101685.22;;;1.61;84.57
70833;BME280;58452;59.418;17.962;2022-11-18T00:20:54;101680.34;;;1.55;85.06
70833;BME280;58452;59.418;17.962;2022-11-18T00:23:20;101670.75;;;1.62;85.11
70833;BME280;58452;59.418;17.962;2022-11-18T00:25:45;101672.38;;;1.64;84.97
70833;BME280;58452;59.418;17.962;2022-11-18T00:28:10;101667.72;;;1.54;85.23
70833;BME280;58452;59.418;17.962;2022-11-18T00:30:36;101673.69;;;1.53;85.58
70833;BME280;58452;59.418;17.962;2022-11-18T00:33:01;101681.13;;;1.57;85.13
70833;BME280;58452;59.418;17.962;2022-11-18T00:35:26;101683.72;;;1.56;85.75
70833;BME280;58452;59.418;17.962;2022-11-18T00:37:52;101674.09;;;1.64;85.04
70833;BME280;58452;59.418;17.962;2022-11-18T00:40:17;101682.50;;;1.44;86.13
70833;BME280;58452;59.418;17.962;2022-11-18T00:42:43;101673.97;;;1.45;85.79
70833;BME280;58452;59.418;17.962;2022-11-18T00:45:21;101673.31;;;1.40;86.51
70833;BME280;58452;59.418;17.962;2022-11-18T00:47:46;101673.31;;;1.40;86.98
70833;BME280;58452;59.418;17.962;2022-11-18T00:50:12;101673.63;;;1.54;86.46
70833;BME280;58452;59.418;17.962;2022-11-18T00:52:38;101668.28;;;1.60;86.18
70833;BME280;58452;59.418;17.962;2022-11-18T00:55:03;101667.00;;;1.50;86.69
70833;BME280;58452;59.418;17.962;2022-11-18T00:57:29;101678.81;;;1.51;86.72
70833;BME280;58452;59.418;17.962;2022-11-18T00:59:54;101675.41;;;1.52;86.40
70833;BME280;58452;59.418;17.962;2022-11-18T01:02:19;101677.66;;;1.38;87.21
70833;BME280;58452;59.418;17.962;2022-11-18T01:04:45;101682.28;;;1.50;86.97
70833;BME280;58452;59.418;17.962;2022-11-18T01:07:10;101690.78;;;1.49;87.22
70833;BME280;58452;59.418;17.962;2022-11-18T01:09:35;101690.19;;;1.42;87.40
70833;BME280;58452;59.418;17.962;2022-11-18T01:12:01;101685.56;;;1.52;87.01
70833;BME280;58452;59.418;17.962;2022-11-18T01:14:45;101695.50;;;1.58;86.75
70833;BME280;58452;59.418;17.962;2022-11-18T01:17:10;101699.34;;;1.68;86.02
70833;BME280;58452;59.418;17.962;2022-11-18T01:19:36;101697.22;;;1.58;86.47
70833;BME280;58452;59.418;17.962;2022-11-18T01:22:01;101695.31;;;1.63;86.31
70833;BME280;58452;59.418;17.962;2022-11-18T01:24:31;101700.09;;;1.70;86.47
70833;BME280;58452;59.418;17.962;2022-11-18T01:26:57;101704.94;;;1.76;86.32
70833;BME280;58452;59.418;17.962;2022-11-18T01:29:22;101706.41;;;1.82;86.23
70833;BME280;58452;59.418;17.962;2022-11-18T01:31:48;101704.72;;;1.82;86.28
70833;BME280;58452;59.418;17.962;2022-11-18T01:34:13;101699.63;;;1.82;86.33
70833;BME280;58452;59.418;17.962;2022-11-18T01:36:39;101708.78;;;1.86;85.90
70833;BME280;58452;59.418;17.962;2022-11-18T01:39:04;101707.22;;;1.62;86.53
70833;BME280;58452;59.418;17.962;2022-11-18T01:41:30;101708.75;;;1.66;86.80
70833;BME280;58452;59.418;17.962;2022-11-18T01:44:04;101709.81;;;1.61;87.47
70833;BME280;58452;59.418;17.962;2022-11-18T01:46:32;101707.81;;;1.47;87.82
70833;BME280;58452;59.418;17.962;2022-11-18T01:51:30;101704.03;;;1.57;87.10
70833;BME280;58452;59.418;17.962;2022-11-18T01:54:07;101719.44;;;1.74;86.99
70833;BME280;58452;59.418;17.962;2022-11-18T01:56:42;101698.69;;;1.63;86.87
70833;BME280;58452;59.418;17.962;2022-11-18T01:59:11;101712.13;;;1.67;86.61
70833;BME280;58452;59.418;17.962;2022-11-18T02:01:38;101707.59;;;1.53;87.25
70833;BME280;58452;59.418;17.962;2022-11-18T02:04:04;101694.09;;;1.51;87.28
70833;BME280;58452;59.418;17.962;2022-11-18T02:06:32;101705.22;;;1.48;88.35
70833;BME280;58452;59.418;17.962;2022-11-18T02:08:58;101712.53;;;1.56;87.75
70833;BME280;58452;59.418;17.962;2022-11-18T02:11:23;101709.00;;;1.60;87.76
70833;BME280;58452;59.418;17.962;2022-11-18T02:14:08;101711.13;;;1.71;87.89
70833;BME280;58452;59.418;17.962;2022-11-18T02:22:53;101715.19;;;1.75;87.75
70833;BME280;58452;59.418;17.962;2022-11-18T02:30:31;101714.50;;;1.91;86.72
70833;BME280;58452;59.418;17.962;2022-11-18T02:33:11;101722.84;;;1.95;86.33
70833;BME280;58452;59.418;17.962;2022-11-18T02:35:45;101723.81;;;1.92;86.70
70833;BME280;58452;59.418;17.962;2022-11-18T02:38:20;101721.00;;;1.98;86.65
70833;BME280;58452;59.418;17.962;2022-11-18T02:40:51;101714.75;;;2.06;86.08
70833;BME280;58452;59.418;17.962;2022-11-18T02:43:26;101717.44;;;2.03;86.38
70833;BME280;58452;59.418;17.962;2022-11-18T02:45:56;101716.41;;;2.07;85.77
70833;BME280;58452;59.418;17.962;2022-11-18T02:48:25;101722.91;;;2.14;85.38
70833;BME280;58452;59.418;17.962;2022-11-18T02:50:52;101716.06;;;2.16;85.17
70833;BME280;58452;59.418;17.962;2022-11-18T02:53:20;101715.13;;;2.17;84.68
70833;BME280;58452;59.418;17.962;2022-11-18T02:55:46;101718.44;;;1.98;84.58
70833;BME280;58452;59.418;17.962;2022-11-18T02:58:15;101719.75;;;2.09;84.82
70833;BME280;58452;59.418;17.962;2022-11-18T03:00:43;101711.09;;;2.13;84.85
70833;BME280;58452;59.418;17.962;2022-11-18T03:09:07;101715.41;;;2.11;84.94
70833;BME280;58452;59.418;17.962;2022-11-18T03:11:43;101714.44;;;2.13;84.54
70833;BME280;58452;59.418;17.962;2022-11-18T03:14:23;101711.50;;;2.02;84.73
70833;BME280;58452;59.418;17.962;2022-11-18T03:17:12;101707.81;;;2.09;85.35
70833;BME280;58452;59.418;17.962;2022-11-18T03:23:18;101708.53;;;2.13;84.95
70833;BME280;58452;59.418;17.962;2022-11-18T03:28:34;101705.63;;;2.02;85.22
70833;BME280;58452;59.418;17.962;2022-11-18T03:31:20;101708.25;;;1.98;85.69
70833;BME280;58452;59.418;17.962;2022-11-18T03:33:51;101709.66;;;2.06;85.06
70833;BME280;58452;59.418;17.962;2022-11-18T03:36:20;101707.16;;;1.84;85.52
70833;BME280;58452;59.418;17.962;2022-11-18T03:38:49;101715.41;;;1.90;85.99
70833;BME280;58452;59.418;17.962;2022-11-18T03:41:17;101713.47;;;1.75;86.42
70833;BME280;58452;59.418;17.962;2022-11-18T03:43:51;101718.69;;;1.72;86.62
70833;BME280;58452;59.418;17.962;2022-11-18T03:46:22;101714.09;;;1.80;86.40
70833;BME280;58452;59.418;17.962;2022-11-18T03:48:53;101723.66;;;1.75;86.86
70833;BME280;58452;59.418;17.962;2022-11-18T03:51:27;101724.53;;;1.74;86.92
70833;BME280;58452;59.418;17.962;2022-11-18T03:54:22;101721.41;;;1.68;86.95
70833;BME280;58452;59.418;17.962;2022-11-18T03:56:59;101714.31;;;1.76;87.41
70833;BME280;58452;59.418;17.962;2022-11-18T03:59:32;101717.38;;;1.62;87.23
70833;BME280;58452;59.418;17.962;2022-11-18T04:02:25;101719.19;;;1.80;86.71
70833;BME280;58452;59.418;17.962;2022-11-18T04:04:51;101719.84;;;1.85;86.18
70833;BME280;58452;59.418;17.962;2022-11-18T04:07:27;101714.88;;;1.82;85.53
70833;BME280;58452;59.418;17.962;2022-11-18T04:10:48;101727.09;;;1.74;85.87
70833;BME280;58452;59.418;17.962;2022-11-18T04:13:29;101725.00;;;1.62;86.80
70833;BME280;58452;59.418;17.962;2022-11-18T04:15:56;101716.50;;;1.63;86.16
70833;BME280;58452;59.418;17.962;2022-11-18T04:18:22;101728.91;;;1.71;86.23
70833;BME280;58452;59.418;17.962;2022-11-18T04:20:47;101728.16;;;1.69;86.18
70833;BME280;58452;59.418;17.962;2022-11-18T04:23:12;101733.00;;;1.75;86.33
70833;BME280;58452;59.418;17.962;2022-11-18T04:25:38;101731.91;;;1.80;85.65
70833;BME280;58452;59.418;17.962;2022-11-18T04:28:04;101729.94;;;1.67;85.84
70833;BME280;58452;59.418;17.962;2022-11-18T04:30:29;101717.75;;;1.53;85.86
70833;BME280;58452;59.418;17.962;2022-11-18T04:32:55;101718.38;;;1.58;85.70
70833;BME280;58452;59.418;17.962;2022-11-18T04:35:20;101736.31;;;1.55;85.71
70833;BME280;58452;59.418;17.962;2022-11-18T04:37:46;101737.84;;;1.59;85.79
70833;BME280;58452;59.418;17.962;2022-11-18T04:40:11;101737.03;;;1.37;86.48
70833;BME280;58452;59.418;17.962;2022-11-18T04:42:37;101727.56;;;1.40;86.63
70833;BME280;58452;59.418;17.962;2022-11-18T04:45:03;101735.91;;;1.44;85.92
70833;BME280;58452;59.418;17.962;2022-11-18T04:47:28;101737.28;;;1.31;86.17
70833;BME280;58452;59.418;17.962;2022-11-18T04:49:54;101738.81;;;1.35;86.86
70833;BME280;58452;59.418;17.962;2022-11-18T04:52:19;101734.19;;;1.23;86.57
70833;BME280;58452;59.418;17.962;2022-11-18T04:54:44;101744.13;;;1.29;86.29
70833;BME280;58452;59.418;17.962;2022-11-18T04:57:10;101745.03;;;1.28;86.23
70833;BME280;58452;59.418;17.962;2022-11-18T04:59:36;101744.13;;;1.29;86.38
70833;BME280;58452;59.418;17.962;2022-11-18T05:02:02;101750.63;;;1.36;86.18
70833;BME280;58452;59.418;17.962;2022-11-18T05:04:30;101742.34;;;1.31;85.78
70833;BME280;58452;59.418;17.962;2022-11-18T05:06:56;101739.03;;;1.29;85.62
70833;BME280;58452;59.418;17.962;2022-11-18T05:09:22;101751.22;;;1.21;85.79
70833;BME280;58452;59.418;17.962;2022-11-18T05:11:48;101761.59;;;1.15;86.20
70833;BME280;58452;59.418;17.962;2022-11-18T05:14:32;101752.97;;;1.19;85.81
70833;BME280;58452;59.418;17.962;2022-11-18T05:17:01;101757.31;;;1.17;86.29
70833;BME280;58452;59.418;17.962;2022-11-18T05:19:27;101751.31;;;1.18;86.34
70833;BME280;58452;59.418;17.962;2022-11-18T05:21:53;101764.81;;;1.20;85.44
70833;BME280;58452;59.418;17.962;2022-11-18T05:24:19;101756.19;;;1.24;85.78
70833;BME280;58452;59.418;17.962;2022-11-18T05:26:45;101758.72;;;1.24;85.88
70833;BME280;58452;59.418;17.962;2022-11-18T05:29:10;101761.00;;;1.31;85.28
70833;BME280;58452;59.418;17.962;2022-11-18T05:31:37;101762.03;;;1.26;85.11
70833;BME280;58452;59.418;17.962;2022-11-18T05:34:02;101767.66;;;1.34;84.89
70833;BME280;58452;59.418;17.962;2022-11-18T05:36:28;101770.88;;;1.39;84.26
70833;BME280;58452;59.418;17.962;2022-11-18T05:38:53;101764.81;;;1.20;84.81
70833;BME280;58452;59.418;17.962;2022-11-18T05:41:18;101765.41;;;1.26;84.95
70833;BME280;58452;59.418;17.962;2022-11-18T05:44:03;101779.84;;;1.26;84.85
70833;BME280;58452;59.418;17.962;2022-11-18T05:46:30;101782.06;;;1.12;85.41
70833;BME280;58452;59.418;17.962;2022-11-18T05:48:56;101778.28;;;1.22;84.97
70833;BME280;58452;59.418;17.962;2022-11-18T05:51:21;101777.06;;;0.85;86.03
70833;BME280;58452;59.418;17.962;2022-11-18T05:53:48;101783.28;;;1.02;86.32
70833;BME280;58452;59.418;17.962;2022-11-18T05:58:58;101781.34;;;1.08;86.10
70833;BME280;58452;59.418;17.962;2022-11-18T06:01:34;101784.03;;;1.04;86.45
70833;BME280;58452;59.418;17.962;2022-11-18T06:04:03;101784.56;;;1.13;86.12
70833;BME280;58452;59.418;17.962;2022-11-18T06:06:32;101782.50;;;0.99;86.13
70833;BME280;58452;59.418;17.962;2022-11-18T06:09:05;101782.19;;;1.09;85.89
70833;BME280;58452;59.418;17.962;2022-11-18T06:11:38;101787.38;;;1.06;85.20
70833;BME280;58452;59.418;17.962;2022-11-18T06:14:09;101801.16;;;1.22;85.39
70833;BME280;58452;59.418;17.962;2022-11-18T06:16:37;101799.47;;;0.99;85.50
70833;BME280;58452;59.418;17.962;2022-11-18T06:19:09;101773.50;;;0.91;84.87
70833;BME280;58452;59.418;17.962;2022-11-18T06:21:35;101807.25;;;1.18;84.83
70833;BME280;58452;59.418;17.962;2022-11-18T06:24:01;101791.84;;;0.99;84.86
70833;BME280;58452;59.418;17.962;2022-11-18T06:26:27;101814.53;;;1.04;84.90
70833;BME280;58452;59.418;17.962;2022-11-18T06:28:53;101814.78;;;0.97;85.13
70833;BME280;58452;59.418;17.962;2022-11-18T06:31:19;101809.34;;;0.83;85.40
70833;BME280;58452;59.418;17.962;2022-11-18T06:33:44;101820.41;;;1.06;85.27
70833;BME280;58452;59.418;17.962;2022-11-18T06:36:10;101824.00;;;1.00;84.70
70833;BME280;58452;59.418;17.962;2022-11-18T06:38:35;101828.25;;;0.99;84.91
70833;BME280;58452;59.418;17.962;2022-11-18T06:41:01;101825.25;;;0.88;85.59
70833;BME280;58452;59.418;17.962;2022-11-18T06:43:27;101829.41;;;0.91;85.75
70833;BME280;58452;59.418;17.962;2022-11-18T06:46:15;101825.88;;;0.95;85.90
70833;BME280;58452;59.418;17.962;2022-11-18T06:49:01;101835.22;;;0.94;85.86
70833;BME280;58452;59.418;17.962;2022-11-18T06:51:27;101834.06;;;0.78;87.10
70833;BME280;58452;59.418;17.962;2022-11-18T06:53:52;101832.31;;;0.80;87.12
70833;BME280;58452;59.418;17.962;2022-11-18T06:56:19;101838.53;;;0.96;86.97
70833;BME280;58452;59.418;17.962;2022-11-18T06:58:45;101834.66;;;0.86;86.60
70833;BME280;58452;59.418;17.962;2022-11-18T07:01:38;101844.41;;;0.98;86.65
70833;BME280;58452;59.418;17.962;2022-11-18T07:04:04;101834.41;;;0.92;86.88
70833;BME280;58452;59.418;17.962;2022-11-18T07:06:31;101848.25;;;1.09;86.51
70833;BME280;58452;59.418;17.962;2022-11-18T07:08:59;101856.75;;;1.08;86.21
70833;BME280;58452;59.418;17.962;2022-11-18T07:11:25;101858.44;;;1.09;85.44
70833;BME280;58452;59.418;17.962;2022-11-18T07:13:51;101855.09;;;1.07;85.98
70833;BME280;58452;59.418;17.962;2022-11-18T07:16:22;101855.63;;;1.16;86.32
70833;BME280;58452;59.418;17.962;2022-11-18T07:18:49;101841.09;;;1.20;85.59
70833;BME280;58452;59.418;17.962;2022-11-18T07:21:17;101847.25;;;1.36;85.23
70833;BME280;58452;59.418;17.962;2022-11-18T07:23:44;101844.78;;;1.34;84.90
70833;BME280;58452;59.418;17.962;2022-11-18T07:26:10;101849.88;;;1.34;84.32
70833;BME280;58452;59.418;17.962;2022-11-18T07:28:35;101860.66;;;1.41;84.48
70833;BME280;58452;59.418;17.962;2022-11-18T07:31:05;101862.19;;;1.45;83.96
70833;BME280;58452;59.418;17.962;2022-11-18T07:33:31;101858.91;;;1.43;83.92
70833;BME280;58452;59.418;17.962;2022-11-18T07:36:11;101865.97;;;1.35;83.05
70833;BME280;58452;59.418;17.962;2022-11-18T07:38:37;101858.44;;;1.09;84.34
70833;BME280;58452;59.418;17.962;2022-11-18T07:41:09;101865.19;;;1.10;84.38
70833;BME280;58452;59.418;17.962;2022-11-18T07:43:35;101860.06;;;0.86;85.02
70833;BME280;58452;59.418;17.962;2022-11-18T07:46:31;101863.16;;;0.94;85.07
70833;BME280;58452;59.418;17.962;2022-11-18T07:48:58;101870.47;;;1.04;84.00
70833;BME280;58452;59.418;17.962;2022-11-18T07:51:27;101861.84;;;1.08;83.67
70833;BME280;58452;59.418;17.962;2022-11-18T07:53:52;101870.47;;;1.04;83.88
70833;BME280;58452;59.418;17.962;2022-11-18T07:56:18;101870.00;;;0.92;83.64
70833;BME280;58452;59.418;17.962;2022-11-18T07:58:44;101867.69;;;0.86;84.14
70833;BME280;58452;59.418;17.962;2022-11-18T08:01:21;101868.56;;;0.85;84.05
70833;BME280;58452;59.418;17.962;2022-11-18T08:03:47;101860.31;;;0.79;84.49
70833;BME280;58452;59.418;17.962;2022-11-18T08:06:15;101868.81;;;1.03;83.83
70833;BME280;58452;59.418;17.962;2022-11-18T08:08:43;101864.31;;;0.86;83.97
70833;BME280;58452;59.418;17.962;2022-11-18T08:11:11;101880.50;;;0.83;84.16
70833;BME280;58452;59.418;17.962;2022-11-18T08:13:37;101865.03;;;0.89;83.00
70833;BME280;58452;59.418;17.962;2022-11-18T08:16:03;101876.06;;;0.88;83.91
70833;BME280;58452;59.418;17.962;2022-11-18T08:18:31;101871.81;;;0.64;84.86
70833;BME280;58452;59.418;17.962;2022-11-18T08:21:03;101881.47;;;0.79;84.76
70833;BME280;58452;59.418;17.962;2022-11-18T08:23:29;101879.69;;;0.81;84.82
70833;BME280;58452;59.418;17.962;2022-11-18T08:26:04;101881.38;;;0.82;84.67
70833;BME280;58452;59.418;17.962;2022-11-18T08:28:30;101870.44;;;0.80;85.37
70833;BME280;58452;59.418;17.962;2022-11-18T08:30:56;101876.75;;;0.93;85.11
70833;BME280;58452;59.418;17.962;2022-11-18T08:33:21;101862.72;;;0.83;84.42
70833;BME280;58452;59.418;17.962;2022-11-18T08:35:47;101881.94;;;0.90;85.05
70833;BME280;58452;59.418;17.962;2022-11-18T08:38:12;101875.91;;;0.93;84.89
70833;BME280;58452;59.418;17.962;2022-11-18T08:40:40;101881.38;;;0.82;85.18
70833;BME280;58452;59.418;17.962;2022-11-18T08:43:10;101875.53;;;1.04;85.30
70833;BME280;58452;59.418;17.962;2022-11-18T08:45:37;101870.56;;;1.01;85.09
70833;BME280;58452;59.418;17.962;2022-11-18T08:48:03;101888.72;;;1.15;84.66
70833;BME280;58452;59.418;17.962;2022-11-18T08:50:28;101886.31;;;1.10;84.67
70833;BME280;58452;59.418;17.962;2022-11-18T08:52:53;101886.97;;;1.17;84.50
70833;BME280;58452;59.418;17.962;2022-11-18T08:55:19;101875.75;;;0.97;84.17
70833;BME280;58452;59.418;17.962;2022-11-18T08:57:44;101874.25;;;1.17;83.92
70833;BME280;58452;59.418;17.962;2022-11-18T09:00:10;101882.50;;;1.23;84.21
70833;BME280;58452;59.418;17.962;2022-11-18T09:02:36;101886.09;;;1.41;83.69
70833;BME280;58452;59.418;17.962;2022-11-18T09:05:01;101863.59;;;1.30;83.34
70833;BME280;58452;59.418;17.962;2022-11-18T09:07:27;101891.41;;;1.35;83.19
70833;BME280;58452;59.418;17.962;2022-11-18T09:09:52;101853.47;;;1.06;83.14
70833;BME280;58452;59.418;17.962;2022-11-18T09:12:17;101889.25;;;1.24;83.22
70833;BME280;58452;59.418;17.962;2022-11-18T09:14:44;101894.81;;;1.34;83.06
70833;BME280;58452;59.418;17.962;2022-11-18T09:17:10;101890.94;;;1.47;83.02
70833;BME280;58452;59.418;17.962;2022-11-18T09:19:36;101886.88;;;1.43;82.50
70833;BME280;58452;59.418;17.962;2022-11-18T09:22:02;101886.09;;;1.41;83.11
70833;BME280;58452;59.418;17.962;2022-11-18T09:24:28;101879.25;;;1.43;83.18
70833;BME280;58452;59.418;17.962;2022-11-18T09:26:53;101878.91;;;1.52;82.62
70833;BME280;58452;59.418;17.962;2022-11-18T09:29:19;101882.28;;;1.53;83.22
70833;BME280;58452;59.418;17.962;2022-11-18T09:31:49;101875.13;;;1.62;82.39
70833;BME280;58452;59.418;17.962;2022-11-18T09:34:14;101878.47;;;1.64;82.35
70833;BME280;58452;59.418;17.962;2022-11-18T09:36:40;101874.19;;;1.65;81.93
70833;BME280;58452;59.418;17.962;2022-11-18T09:39:05;101874.19;;;1.65;81.74
70833;BME280;58452;59.418;17.962;2022-11-18T09:41:47;101882.63;;;1.65;81.25
70833;BME280;58452;59.418;17.962;2022-11-18T09:49:25;101879.28;;;1.65;81.43
70833;BME280;58452;59.418;17.962;2022-11-18T09:51:52;101895.88;;;1.75;80.54
70833;BME280;58452;59.418;17.962;2022-11-18T09:54:25;101901.44;;;1.84;80.78
70833;BME280;58452;59.418;17.962;2022-11-18T09:56:52;101890.31;;;1.87;80.46
70833;BME280;58452;59.418;17.962;2022-11-18T09:59:21;101892.22;;;1.82;80.77
70833;BME280;58452;59.418;17.962;2022-11-18T10:01:49;101902.25;;;1.85;80.85
70833;BME280;58452;59.418;17.962;2022-11-18T10:04:17;101898.59;;;1.92;81.32
70833;BME280;58452;59.418;17.962;2022-11-18T10:06:43;101906.53;;;1.84;81.46
70833;BME280;58452;59.418;17.962;2022-11-18T10:09:32;101904.13;;;2.03;81.30
70833;BME280;58452;59.418;17.962;2022-11-18T10:12:23;101900.16;;;1.96;80.85
70833;BME280;58452;59.418;17.962;2022-11-18T10:20:22;101910.31;;;1.96;81.32
70833;BME280;58452;59.418;17.962;2022-11-18T10:22:53;101904.53;;;1.92;80.98
70833;BME280;58452;59.418;17.962;2022-11-18T10:25:20;101912.59;;;2.04;80.80
70833;BME280;58452;59.418;17.962;2022-11-18T10:27:47;101910.91;;;2.03;80.71
70833;BME280;58452;59.418;17.962;2022-11-18T10:30:14;101909.50;;;1.95;81.57
70833;BME280;58452;59.418;17.962;2022-11-18T10:35:31;101909.03;;;2.08;81.79
70833;BME280;58452;59.418;17.962;2022-11-18T10:38:18;101891.94;;;2.11;81.32
70833;BME280;58452;59.418;17.962;2022-11-18T10:40:56;101911.13;;;2.20;82.06
70833;BME280;58452;59.418;17.962;2022-11-18T10:46:35;101910.72;;;2.09;81.24
70833;BME280;58452;59.418;17.962;2022-11-18T10:51:46;101918.56;;;2.03;81.39
70833;BME280;58452;59.418;17.962;2022-11-18T10:54:16;101919.69;;;1.95;81.25
70833;BME280;58452;59.418;17.962;2022-11-18T11:01:58;101917.22;;;2.16;81.00
70833;BME280;58452;59.418;17.962;2022-11-18T11:04:25;101915.44;;;2.18;79.85
70833;BME280;58452;59.418;17.962;2022-11-18T11:06:52;101920.94;;;2.07;79.22
70833;BME280;58452;59.418;17.962;2022-11-18T11:09:28;101920.81;;;2.10;79.74
70833;BME280;58452;59.418;17.962;2022-11-18T11:17:36;101917.22;;;2.16;78.70
70833;BME280;58452;59.418;17.962;2022-11-18T11:20:22;101910.34;;;2.18;78.16
70833;BME280;58452;59.418;17.962;2022-11-18T11:22:48;101919.88;;;2.13;77.97
70833;BME280;58452;59.418;17.962;2022-11-18T11:25:18;101910.16;;;2.01;77.82
70833;BME280;58452;59.418;17.962;2022-11-18T11:39:27;101899.16;;;2.22;77.51
70833;BME280;58452;59.418;17.962;2022-11-18T11:42:24;101889.75;;;2.24;75.74
70833;BME280;58452;59.418;17.962;2022-11-18T11:50:45;101893.75;;;2.08;76.17
70833;BME280;58452;59.418;17.962;2022-11-18T11:53:43;101913.75;;;2.17;75.60
70833;BME280;58452;59.418;17.962;2022-11-18T12:01:18;101900.97;;;1.96;76.11
70833;BME280;58452;59.418;17.962;2022-11-18T12:03:52;101895.31;;;2.12;75.31
70833;BME280;58452;59.418;17.962;2022-11-18T12:06:23;101883.56;;;2.08;74.18
70833;BME280;58452;59.418;17.962;2022-11-18T12:12:11;101904.91;;;2.05;74.25
70833;BME280;58452;59.418;17.962;2022-11-18T12:18:10;101891.50;;;2.00;73.01
70833;BME280;58452;59.418;17.962;2022-11-18T12:20:49;101894.47;;;1.89;72.87
70833;BME280;58452;59.418;17.962;2022-11-18T12:23:16;101895.31;;;1.90;73.08
70833;BME280;58452;59.418;17.962;2022-11-18T12:28:07;101894.09;;;1.98;72.60
70833;BME280;58452;59.418;17.962;2022-11-18T12:30:33;101892.47;;;1.98;72.33
70833;BME280;58452;59.418;17.962;2022-11-18T12:32:58;101884.16;;;1.92;72.37
70833;BME280;58452;59.418;17.962;2022-11-18T12:35:27;101899.69;;;1.86;72.08
70833;BME280;58452;59.418;17.962;2022-11-18T12:40:33;101889.53;;;1.85;71.42
70833;BME280;58452;59.418;17.962;2022-11-18T12:43:01;101889.72;;;1.80;71.08
70833;BME280;58452;59.418;17.962;2022-11-18T12:45:48;101894.59;;;1.86;70.65
70833;BME280;58452;59.418;17.962;2022-11-18T12:48:33;101896.59;;;1.78;70.35
70833;BME280;58452;59.418;17.962;2022-11-18T12:54:15;101907.00;;;1.72;70.55
70833;BME280;58452;59.418;17.962;2022-11-18T12:56:47;101907.94;;;1.46;69.65
70833;BME280;58452;59.418;17.962;2022-11-18T12:59:13;101895.72;;;1.56;70.83
70833;BME280;58452;59.418;17.962;2022-11-18T13:01:39;101900.44;;;1.65;70.67
70833;BME280;58452;59.418;17.962;2022-11-18T13:04:15;101896.47;;;1.81;69.77
70833;BME280;58452;59.418;17.962;2022-11-18T13:06:42;101897.38;;;1.57;69.33
70833;BME280;58452;59.418;17.962;2022-11-18T13:09:16;101896.16;;;1.67;69.23
70833;BME280;58452;59.418;17.962;2022-11-18T13:11:46;101903.78;;;1.67;68.83
70833;BME280;58452;59.418;17.962;2022-11-18T13:14:17;101901.63;;;1.57;69.58
70833;BME280;58452;59.418;17.962;2022-11-18T13:20:18;101894.38;;;1.46;69.91
70833;BME280;58452;59.418;17.962;2022-11-18T13:22:52;101903.00;;;1.42;70.57
70833;BME280;58452;59.418;17.962;2022-11-18T13:25:36;101903.72;;;1.45;69.96
70833;BME280;58452;59.418;17.962;2022-11-18T13:30:44;101893.44;;;1.48;69.41
70833;BME280;58452;59.418;17.962;2022-11-18T13:33:12;101893.56;;;1.45;70.14
70833;BME280;58452;59.418;17.962;2022-11-18T13:35:39;101891.50;;;1.55;69.45
70833;BME280;58452;59.418;17.962;2022-11-18T13:38:05;101901.22;;;1.44;69.64
70833;BME280;58452;59.418;17.962;2022-11-18T13:40:43;101902.13;;;1.43;69.79
70833;BME280;58452;59.418;17.962;2022-11-18T13:43:31;101900.41;;;1.43;70.19
70833;BME280;58452;59.418;17.962;2022-11-18T13:46:04;101899.38;;;1.49;70.22
70833;BME280;58452;59.418;17.962;2022-11-18T13:48:32;101894.16;;;1.52;70.25
70833;BME280;58452;59.418;17.962;2022-11-18T13:50:59;101888.84;;;1.58;70.16
70833;BME280;58452;59.418;17.962;2022-11-18T13:53:32;101895.47;;;1.62;70.63
70833;BME280;58452;59.418;17.962;2022-11-18T13:56:05;101902.13;;;1.43;70.43
70833;BME280;58452;59.418;17.962;2022-11-18T13:58:43;101900.63;;;1.37;70.62
70833;BME280;58452;59.418;17.962;2022-11-18T14:01:17;101907.53;;;1.34;70.83
70833;BME280;58452;59.418;17.962;2022-11-18T14:06:09;101904.03;;;1.36;70.28
70833;BME280;58452;59.418;17.962;2022-11-18T14:08:36;101908.75;;;1.24;71.03
70833;BME280;58452;59.418;17.962;2022-11-18T14:11:03;101901.88;;;1.26;70.37
70833;BME280;58452;59.418;17.962;2022-11-18T14:13:29;101905.63;;;1.16;71.11
70833;BME280;58452;59.418;17.962;2022-11-18T14:15:57;101902.09;;;1.20;70.82
70833;BME280;58452;59.418;17.962;2022-11-18T14:20:57;101896.78;;;1.26;71.22
70833;BME280;58452;59.418;17.962;2022-11-18T14:23:31;101891.50;;;1.32;70.82
70833;BME280;58452;59.418;17.962;2022-11-18T14:25:58;101893.25;;;1.30;71.05
70833;BME280;58452;59.418;17.962;2022-11-18T14:28:29;101895.59;;;1.36;71.25
70833;BME280;58452;59.418;17.962;2022-11-18T14:31:20;101901.78;;;1.52;70.75
70833;BME280;58452;59.418;17.962;2022-11-18T14:34:22;101905.88;;;1.56;70.97
70833;BME280;58452;59.418;17.962;2022-11-18T14:36:49;101903.31;;;1.58;70.99
70833;BME280;58452;59.418;17.962;2022-11-18T14:39:29;101907.56;;;1.57;71.37
70833;BME280;58452;59.418;17.962;2022-11-18T14:41:55;101909.91;;;1.62;71.42
70833;BME280;58452;59.418;17.962;2022-11-18T14:44:23;101898.69;;;1.67;71.49
70833;BME280;58452;59.418;17.962;2022-11-18T14:47:01;101907.44;;;1.83;71.33
70833;BME280;58452;59.418;17.962;2022-11-18T14:49:28;101891.81;;;1.69;70.91
70833;BME280;58452;59.418;17.962;2022-11-18T14:51:55;101909.06;;;1.84;70.79